M I D A S
Marine Information and Data Acquisition System
Tripno 142 of the Zeeleeuw from 2001-07-19 06:59:27 to 2001-07-19 14:35:00
Back to CruiseResearch ActivitiesStationsMapUnderway DataData graphs

EquipmentUnitsComment
TimeDGPSUTC
LatitudeDGPSDM.mWGS84
LongitudeDGPSDM.mWGS84
HeadingGyrodeg 
SOGDGPSknotsSpeed over ground
COGDGPSdegCourse over ground
DepthEcho soundermeters200 kHz
Missing or incorrect values are displayed as -999
Navigation data collected by the RV Zeeleeuw from 2001-07-19 06:59:27 to 2001-07-19 14:35:00
Time Latitude Longitude Heading SOG COG Depth
2001-07-19 07:00:31 51°14.084 2°55.466 336 7.7 333.7 5.9
2001-07-19 07:04:57 51°14.485 2°54.758 316.3 10.1 310 6.2
2001-07-19 07:05:57 51°14.59 2°54.543 317.7 10.4 312 6.1
2001-07-19 07:06:57 51°14.699 2°54.319 310 10.8 304.5 6.3
2001-07-19 07:07:57 51°14.807 2°54.09 311.2 10.8 305.7 5.7
2001-07-19 07:08:57 51°14.913 2°53.859 312 10.8 304.7 5.4
2001-07-19 07:09:57 51°15.025 2°53.638 315 10.4 307.9 5.6
2001-07-19 07:10:57 51°15.084 2°53.48 308.5 5.1 297.2 5.9
2001-07-19 07:11:57 51°15.09 2°53.443 356.5 1.5 176.3 5.9
2001-07-19 07:12:57 51°15.06 2°53.436 27 1.7 191.6 -999
2001-07-19 09:10:46 51°17.575 2°52.435 202.3 13 195.7 8.2
2001-07-19 09:11:45 51°17.366 2°52.384 184.3 13.1 179.5 8.3
2001-07-19 09:12:46 51°17.145 2°52.426 170 13.4 166 7.9
2001-07-19 09:13:45 51°16.953 2°52.602 152.3 14 148.3 8.1
2001-07-19 09:14:45 51°16.75 2°52.758 153.5 13.3 149.9 8.3
2001-07-19 09:15:45 51°16.572 2°52.981 152.7 13.7 146.9 9.8
2001-07-19 09:16:45 51°16.38 2°53.183 153.3 14 146.9 10.3
2001-07-19 09:17:46 51°16.185 2°53.39 154.3 12.8 147.7 10.3
2001-07-19 09:18:57 51°16.054 2°53.489 178.8 3.9 156.3 10.2
2001-07-19 09:22:33 51°16.028 2°53.65 179.5 1.7 114.1 10.1
2001-07-19 09:23:33 51°16.017 2°53.687 197.8 1.4 115.2 10.1
2001-07-19 09:24:33 51°16 2°53.717 200.7 2.5 166.6 10
2001-07-19 09:25:33 51°15.946 2°53.803 115.2 6.8 108.1 10
2001-07-19 09:26:33 51°15.999 2°54.017 37.7 9.7 41.3 9.8
2001-07-19 09:27:33 51°16.15 2°54.145 18.8 10.6 23 10.1
2001-07-19 09:28:33 51°16.315 2°54.255 19.2 10.9 22.4 10.2
2001-07-19 09:29:33 51°16.48 2°54.38 24.5 11 27.8 10.1
2001-07-19 09:30:33 51°16.638 2°54.529 29.2 11 32.9 9.9
2001-07-19 09:31:33 51°16.741 2°54.636 17.7 5.3 32.5 10.6
2001-07-19 09:32:35 51°16.761 2°54.693 31.5 1.5 112 -999
2001-07-19 09:33:35 51°16.754 2°54.73 51 1.7 89.4 -999
2001-07-19 09:34:33 51°16.754 2°54.777 63 1.9 85.5 10.7
2001-07-19 09:35:33 51°16.758 2°54.829 62 2 83.3 10.2
2001-07-19 09:36:33 51°16.761 2°54.885 60.2 2.2 85.5 10
2001-07-19 09:37:33 51°16.772 2°54.951 51.7 3.5 66 10.2
2001-07-19 09:38:33 51°16.862 2°55.04 2.5 8.3 12.7 10.3
2001-07-19 09:39:33 51°17.017 2°55.045 350.3 9.7 356.6 10.1
2001-07-19 09:40:33 51°17.187 2°55.074 4.5 10.6 10.2 9.2
2001-07-19 09:41:33 51°17.344 2°55.071 345.2 7.3 355.3 8.5
2001-07-19 09:42:33 51°17.395 2°55.1 29 2 63.1 7.8
2001-07-19 09:43:33 51°17.406 2°55.155 54.2 2.3 72.2 7.8
2001-07-19 09:44:33 51°17.418 2°55.213 46.2 2.3 70.6 8
2001-07-19 09:45:33 51°17.43 2°55.268 41 2.1 73.2 8.1
2001-07-19 09:46:33 51°17.44 2°55.319 36.7 2 74.5 8.2
2001-07-19 09:47:33 51°17.45 2°55.374 42.2 2.4 72.7 8.1
2001-07-19 09:48:33 51°17.468 2°55.446 64 3.3 71.3 8.1
2001-07-19 09:49:33 51°17.48 2°55.542 93.3 3.8 85.8 8.5
2001-07-19 09:50:33 51°17.472 2°55.636 129.3 3.3 104.9 8.7
2001-07-19 09:51:33 51°17.453 2°55.72 140 3.4 111.9 9.1
2001-07-19 09:52:33 51°17.431 2°55.804 140.3 3.4 113.3 9.4
2001-07-19 09:53:33 51°17.407 2°55.889 141.5 3.5 114.3 9.7
2001-07-19 09:54:33 51°17.385 2°55.971 144.8 3.2 111.7 9.8
2001-07-19 09:55:33 51°17.367 2°56.047 145.8 3 109.2 9.7
2001-07-19 09:56:33 51°17.354 2°56.117 150.5 2.7 106.1 9.7
2001-07-19 09:57:33 51°17.346 2°56.182 146.5 2.4 96.1 9.8
2001-07-19 09:58:33 51°17.353 2°56.232 144.8 1.9 64 9.7
2001-07-19 09:59:35 51°17.372 2°56.27 140.7 1.8 42.6 -999
2001-07-19 10:00:35 51°17.398 2°56.294 141 1.9 23.4 -999
2001-07-19 10:01:35 51°17.415 2°56.336 114.8 2.9 86.5 -999
2001-07-19 10:02:33 51°17.443 2°56.446 38.5 5.4 48.7 9.6
2001-07-19 10:03:33 51°17.517 2°56.478 318.5 3.8 345.4 9.7
2001-07-19 10:04:33 51°17.517 2°56.423 227.2 3.2 215.5 9.6
2001-07-19 10:05:34 51°17.465 2°56.355 238.3 3.6 228.5 9.6
2001-07-19 10:06:33 51°17.443 2°56.292 257.2 2.3 249 9.6
2001-07-19 10:07:33 51°17.429 2°56.245 238.2 2.1 222.1 9.7
2001-07-19 10:08:33 51°17.395 2°56.22 226.5 2.4 201 9.7
2001-07-19 10:09:35 51°17.361 2°56.188 236.2 2.2 217.1 10
2001-07-19 10:10:33 51°17.343 2°56.164 248.2 0.9 222.8 9.9
2001-07-19 10:11:33 51°17.34 2°56.158 262 0.1 83.4 9.8
2001-07-19 10:12:33 51°17.343 2°56.165 262.3 0.4 67.8 9.8
2001-07-19 10:13:33 51°17.344 2°56.179 256.5 0.7 89.1 9.9
2001-07-19 10:14:33 51°17.344 2°56.196 254 0.6 88.4 9.8
2001-07-19 10:15:33 51°17.343 2°56.212 244.8 0.6 111 9.9
2001-07-19 10:16:33 51°17.333 2°56.218 241.8 0.9 188.5 9.7
2001-07-19 10:17:33 51°17.325 2°56.188 260.2 1.7 257.7 10
2001-07-19 10:18:33 51°17.333 2°56.145 289.5 1.5 321.2 10.1
2001-07-19 10:19:33 51°17.35 2°56.147 288.2 0.9 41.5 10.1
2001-07-19 10:20:33 51°17.357 2°56.172 268.5 1.1 77.3 9.8
2001-07-19 10:21:35 51°17.358 2°56.205 249.8 1.3 91.3 9.8
2001-07-19 10:22:33 51°17.355 2°56.232 236.8 0.9 129.5 9.6
2001-07-19 10:23:33 51°17.342 2°56.217 246.5 1.9 236.7 10
2001-07-19 10:24:33 51°17.331 2°56.141 272.2 3.4 277.3 10.2
2001-07-19 10:25:33 51°17.347 2°56.065 276.7 2.1 290.1 10.2
2001-07-19 10:26:33 51°17.355 2°56.05 275 0.5 22.1 10.1
2001-07-19 10:27:33 51°17.361 2°56.069 268.3 1.1 78.4 10
2001-07-19 10:28:55 51°17.362 2°56.125 245.2 1.7 86.9 10.2
2001-07-19 10:29:55 51°17.361 2°56.16 246 0.5 138.6 10.1
2001-07-19 10:30:56 51°17.4 2°56.121 341.3 5.1 355.8 10.1
2001-07-19 10:31:57 51°17.493 2°56.259 46.8 9.4 49.1 10.1
2001-07-19 10:32:55 51°17.619 2°56.421 30 10 34.7 9.3
2001-07-19 10:33:55 51°17.744 2°56.617 47 10.9 47.9 9.6
2001-07-19 10:34:56 51°17.88 2°56.806 29 10.3 33.1 9.1
2001-07-19 10:36:15 51°18.005 2°56.965 21.7 3.4 47.1 8.5
2001-07-19 10:37:15 51°18.013 2°57.016 30.3 1.7 100.5 -999
2001-07-19 10:38:15 51°18.022 2°57.1 96.3 5.2 85.1 9.2
2001-07-19 10:41:23 51°17.937 2°56.924 249 3.5 247.6 9.1
2001-07-19 10:42:23 51°17.934 2°56.912 264.5 0.8 74.6 9.2
2001-07-19 10:43:23 51°17.937 2°56.943 258.5 1.4 85.3 9
2001-07-19 10:44:23 51°17.94 2°56.982 244.3 1.6 83.9 9.4
2001-07-19 10:45:23 51°17.944 2°57.028 228 1.8 83.8 9.2
2001-07-19 10:46:23 51°17.921 2°57.066 171.5 3.7 146.4 9.5
2001-07-19 10:47:23 51°17.908 2°57.203 74.2 6.4 70.8 9.5
2001-07-19 10:48:23 51°17.986 2°57.35 36.3 7.8 41.5 9.5
2001-07-19 10:49:23 51°18.116 2°57.462 15.5 9.5 21.7 9.3
2001-07-19 10:56:05 51°18.326 2°57.873 254.5 0.6 67.3 8.6
2001-07-19 10:57:03 51°18.329 2°57.894 244.3 1 83.1 8.5
2001-07-19 10:58:03 51°18.333 2°57.924 251.2 1.3 80.6 8.3
2001-07-19 10:59:03 51°18.338 2°57.963 250.5 1.6 77.1 8.7
2001-07-19 11:00:03 51°18.343 2°58.01 241.7 1.9 79 8.6
2001-07-19 11:01:03 51°18.346 2°58.054 227.5 1.1 116.6 8.6
2001-07-19 11:02:03 51°18.322 2°58.036 232.2 2.6 215 8.5
2001-07-19 11:03:03 51°18.295 2°57.966 252.2 3.4 249 8.9
2001-07-19 11:04:03 51°18.278 2°57.875 256.3 3.7 255.1 8.8
2001-07-19 11:05:03 51°18.258 2°57.782 247.8 3.8 246 8.8
2001-07-19 11:06:03 51°18.21 2°57.709 228.5 4.1 218.2 9.5
2001-07-19 11:07:03 51°18.156 2°57.64 229.2 4.2 218.4 9.4
2001-07-19 11:08:03 51°18.104 2°57.569 231 4.1 219.9 9.2
2001-07-19 11:39:41 51°16.413 2°55.226 227 4.5 219.4 10
2001-07-19 11:40:41 51°16.334 2°55.139 217.7 8.5 211.9 9.8
2001-07-19 11:41:41 51°16.171 2°54.999 204.5 12 202.1 9.4
2001-07-19 11:42:41 51°15.974 2°54.914 194.7 12.4 189.9 9.2
2001-07-19 11:43:41 51°15.775 2°54.839 195.7 12.5 192.8 8.5
2001-07-19 11:44:41 51°15.566 2°54.823 186.7 12.7 182 8
2001-07-19 11:45:41 51°15.356 2°54.794 196.3 12.8 192 7.4
2001-07-19 11:46:41 51°15.15 2°54.767 189.2 12.5 184.4 7
2001-07-19 11:47:41 51°14.942 2°54.762 185.7 12.6 179.9 7.8
2001-07-19 11:48:41 51°14.735 2°54.773 175.3 12.4 169.9 7.9
2001-07-19 11:49:41 51°14.528 2°54.882 163.2 13.2 157.8 8.4
2001-07-19 11:50:43 51°14.348 2°55.087 141 12.1 138.2 8.9
2001-07-19 11:51:41 51°14.225 2°55.318 135.5 11.7 132.3 8.8
2001-07-19 11:52:41 51°14.086 2°55.456 161.5 7.6 158.4 8.9
2001-07-19 11:53:41 51°13.991 2°55.508 160.5 5.5 159.5 9
2001-07-19 11:54:41 51°13.899 2°55.572 158.5 6.6 156.6 8.2
2001-07-19 11:55:41 51°13.793 2°55.651 153 7.2 152.2 9.1
2001-07-19 11:56:43 51°13.723 2°55.742 126.7 3.9 127.3 10
2001-07-19 11:57:41 51°13.702 2°55.814 111.2 2.7 110.3 7.6
2001-07-19 11:58:41 51°13.688 2°55.872 109.3 2.5 108.4 7
2001-07-19 11:59:43 51°13.678 2°55.918 124 0.5 119.3 5.7
2001-07-19 12:00:41 51°13.675 2°55.924 130.2 0.1 70.9 5.5
2001-07-19 12:01:42 51°13.675 2°55.924 133.7   71.3 5.5
2001-07-19 12:02:41 51°13.675 2°55.925 130.7 0.1 73.3 5.4
2001-07-19 12:03:43 51°13.676 2°55.925 130 0.1 31.1 5.4
2001-07-19 12:04:43 51°13.676 2°55.925 129   93.5 5.4
2001-07-19 12:05:41 51°13.676 2°55.925 129.7 0.1 170.4 5.4
2001-07-19 12:06:41 51°13.676 2°55.924 127.7   247.3 5.4
2001-07-19 12:25:49 51°13.676 2°55.925 359.7   345.6 -999
2001-07-19 12:26:49 51°13.677 2°55.924 359.3   275.2 -999
2001-07-19 12:27:49 51°13.677 2°55.925 359.7   60 -999
2001-07-19 12:31:19 51°13.674 2°55.925 359.8   304.7 -999
2001-07-19 12:32:20 51°13.674 2°55.924 359.8   306.4 -999
2001-07-19 12:33:20 51°13.675 2°55.925 359.8   342.7 -999
2001-07-19 12:34:20 51°13.676 2°55.925 358.7   81.6 -999
2001-07-19 12:35:20 51°13.675 2°55.925 359.2   336.8 -999
2001-07-19 12:36:20 51°13.675 2°55.925 359.2   112.4 -999
2001-07-19 12:37:20 51°13.675 2°55.925 359.8   112.9 -999
2001-07-19 12:38:20 51°13.676 2°55.925     1 -999
2001-07-19 12:39:21 51°13.676 2°55.925     4.8 -999
2001-07-19 12:40:21 51°13.677 2°55.924     311.4 -999
2001-07-19 12:41:20 51°13.677 2°55.924     344 -999
2001-07-19 12:42:20 51°13.677 2°55.924 359.7   178.4 -999
2001-07-19 12:43:20 51°13.677 2°55.924     323.2 -999
2001-07-19 12:44:20 51°13.677 2°55.924 0.8   352 -999
2001-07-19 12:45:21 51°13.677 2°55.924 0.7   12.6 -999
2001-07-19 12:46:20 51°13.677 2°55.924 358.3   13.4 -999
2001-07-19 12:47:20 51°13.677 2°55.924 359.7   288.1 -999
2001-07-19 12:48:21 51°13.677 2°55.925 359.7   103.5 -999
2001-07-19 12:49:20 51°13.676 2°55.925     11.3 -999
2001-07-19 12:50:20 51°13.676 2°55.924 0.3   122.7 -999
2001-07-19 12:51:20 51°13.675 2°55.924 0.3   26 -999
2001-07-19 12:52:21 51°13.675 2°55.924 0.5   344.7 -999
2001-07-19 12:53:21 51°13.675 2°55.924 0.3   90.9 -999
2001-07-19 12:54:21 51°13.675 2°55.925 0.7   97.6 -999
2001-07-19 12:55:20 51°13.675 2°55.924 0.8   207.1 -999
2001-07-19 12:56:21 51°13.675 2°55.924 0.8   164.2 -999
2001-07-19 12:57:20 51°13.676 2°55.924 359.8   33.1 -999
2001-07-19 12:58:20 51°13.676 2°55.924 359.7   86.6 -999
2001-07-19 12:59:21 51°13.675 2°55.924 359.7   336.4 -999
2001-07-19 13:00:21 51°13.676 2°55.924 0.7   54.1 -999
2001-07-19 13:01:20 51°13.677 2°55.924     7.2 -999
2001-07-19 13:02:20 51°13.677 2°55.924 0.5   20 -999